createdAt,value
2017-11-17T00:03:00.334Z,8.63
2017-11-17T00:06:02.292Z,8.63
2017-11-17T00:09:05.000Z,8.00
2017-11-17T00:12:07.758Z,8.03
2017-11-17T00:15:09.675Z,7.60
2017-11-17T00:18:12.337Z,7.03
2017-11-17T00:21:14.354Z,7.70
2017-11-17T00:24:16.298Z,6.53
2017-11-17T00:27:18.287Z,7.17
2017-11-17T00:30:21.084Z,7.17
2017-11-17T00:33:23.094Z,6.23
2017-11-17T00:36:24.995Z,6.27
2017-11-17T00:39:27.691Z,6.23
2017-11-17T00:42:30.383Z,5.27
2017-11-17T00:45:32.303Z,5.93
2017-11-17T00:48:34.222Z,6.53
2017-11-17T00:51:36.304Z,6.23
2017-11-17T00:54:38.306Z,6.10
2017-11-17T00:57:40.275Z,7.40
2017-11-17T01:00:42.166Z,6.47
2017-11-17T01:03:44.156Z,7.03
2017-11-17T01:06:46.115Z,7.40
2017-11-17T01:09:48.124Z,7.70
2017-11-17T01:12:50.814Z,6.73
2017-11-17T01:15:52.749Z,6.47
2017-11-17T01:18:54.685Z,6.43
2017-11-17T01:21:57.462Z,6.67
2017-11-17T01:24:59.384Z,5.43
2017-11-17T01:28:02.166Z,5.60
2017-11-17T01:31:04.334Z,5.83
2017-11-17T01:34:06.325Z,6.23
2017-11-17T01:37:08.301Z,5.70
2017-11-17T01:40:10.213Z,6.20
2017-11-17T01:43:12.876Z,6.93
2017-11-17T01:46:14.816Z,6.53
2017-11-17T01:49:16.732Z,7.63
2017-11-17T01:52:18.754Z,7.03
2017-11-17T01:55:20.733Z,7.10
2017-11-17T01:58:22.684Z,7.70
2017-11-17T02:01:24.593Z,8.60
2017-11-17T02:04:26.527Z,9.30
2017-11-17T02:07:29.027Z,8.37
2017-11-17T02:10:31.649Z,9.27
2017-11-17T02:13:33.567Z,9.00
2017-11-17T02:16:36.274Z,9.33
2017-11-17T02:19:38.935Z,8.40
2017-11-17T02:22:40.878Z,7.97
2017-11-17T02:25:42.803Z,8.70
2017-11-17T02:28:45.083Z,9.97
2017-11-17T02:31:47.006Z,8.87
2017-11-17T02:34:49.702Z,7.77
2017-11-17T02:37:52.408Z,8.73
2017-11-17T02:40:55.096Z,7.30
2017-11-17T02:43:57.789Z,7.37
2017-11-17T02:46:59.762Z,7.60
2017-11-17T02:50:02.336Z,8.20
2017-11-17T02:53:04.327Z,8.50
2017-11-17T02:56:06.250Z,9.40
2017-11-17T02:59:08.951Z,8.43
2017-11-17T03:02:11.638Z,9.50
2017-11-17T03:05:14.346Z,10.07
2017-11-17T03:08:17.110Z,9.87
2017-11-17T03:11:19.065Z,9.60
2017-11-17T03:14:20.992Z,8.77
2017-11-17T03:17:22.944Z,7.33
2017-11-17T03:20:24.941Z,8.20
2017-11-17T03:23:26.999Z,6.47
2017-11-17T03:26:28.911Z,7.60
2017-11-17T03:29:30.853Z,6.57
2017-11-17T03:32:32.783Z,6.20
2017-11-17T03:35:34.771Z,5.20
2017-11-17T03:38:36.688Z,5.37
2017-11-17T03:41:38.739Z,4.70
2017-11-17T03:44:40.639Z,5.43
2017-11-17T03:47:42.580Z,6.17
2017-11-17T03:50:44.486Z,5.97
2017-11-17T03:53:46.475Z,6.30
2017-11-17T03:56:48.398Z,5.50
2017-11-17T03:59:51.100Z,5.70
2017-11-17T04:02:53.005Z,6.10
2017-11-17T04:05:55.269Z,6.67
2017-11-17T04:08:57.174Z,6.10
2017-11-17T04:11:59.115Z,5.90
2017-11-17T04:15:01.012Z,7.90
2017-11-17T04:18:02.936Z,6.53
2017-11-17T04:21:04.834Z,6.70
2017-11-17T04:24:06.898Z,6.20
2017-11-17T04:27:08.795Z,6.60
2017-11-17T04:30:10.755Z,6.30
2017-11-17T04:33:12.758Z,6.47
2017-11-17T04:36:15.049Z,6.20
2017-11-17T04:39:17.850Z,6.50
2017-11-17T04:42:19.841Z,5.50
2017-11-17T04:45:21.842Z,5.47
2017-11-17T04:48:24.558Z,6.10
2017-11-17T04:51:26.463Z,5.90
2017-11-17T04:54:28.408Z,5.00
2017-11-17T04:57:31.188Z,5.90
2017-11-17T05:00:33.861Z,5.67
2017-11-17T05:03:36.086Z,5.50
2017-11-17T05:06:39.397Z,6.00
2017-11-17T05:09:42.053Z,5.97
2017-11-17T05:12:43.990Z,6.20
2017-11-17T05:15:46.761Z,8.40
2017-11-17T05:18:48.971Z,5.67
2017-11-17T05:21:51.749Z,6.23
2017-11-17T05:24:55.251Z,6.03
2017-11-17T05:27:57.262Z,5.83
2017-11-17T05:30:59.244Z,6.47
2017-11-17T05:34:01.315Z,5.70
2017-11-17T05:37:03.281Z,5.90
2017-11-17T05:40:05.267Z,5.20
2017-11-17T05:43:07.273Z,9.83
2017-11-17T05:46:09.321Z,8.40
2017-11-17T05:49:11.320Z,6.47
2017-11-17T05:52:13.317Z,5.77
2017-11-17T05:55:15.295Z,6.50
2017-11-17T05:58:17.308Z,6.30
2017-11-17T06:01:20.074Z,6.30
2017-11-17T06:04:22.043Z,6.07
2017-11-17T06:07:24.078Z,7.73
2017-11-17T06:10:26.746Z,6.33
2017-11-17T06:13:28.870Z,6.20
2017-11-17T06:16:31.656Z,5.90
2017-11-17T06:19:33.627Z,6.80
2017-11-17T06:22:35.588Z,6.33
2017-11-17T06:25:37.616Z,5.70
2017-11-17T06:28:40.383Z,6.77
2017-11-17T06:31:42.404Z,7.20
2017-11-17T06:34:45.385Z,6.67
2017-11-17T06:37:47.352Z,6.97
2017-11-17T06:40:49.273Z,6.80
2017-11-17T06:43:51.998Z,6.97
2017-11-17T06:46:54.065Z,7.57
2017-11-17T06:49:56.748Z,7.73
2017-11-17T06:52:58.662Z,7.43
2017-11-17T06:56:00.699Z,6.80
2017-11-17T06:59:02.686Z,6.20
2017-11-17T07:02:04.642Z,6.37
2017-11-17T07:05:06.660Z,6.73
2017-11-17T07:08:08.595Z,6.27
2017-11-17T07:11:10.487Z,5.53
2017-11-17T07:14:12.481Z,5.40
2017-11-17T07:17:14.498Z,5.97
2017-11-17T07:20:17.213Z,7.50
2017-11-17T07:23:19.113Z,7.67
2017-11-17T07:26:21.056Z,6.17
2017-11-17T07:29:23.857Z,5.60
2017-11-17T07:32:25.824Z,5.83
2017-11-17T07:35:27.727Z,7.37
2017-11-17T07:38:30.520Z,7.67
2017-11-17T07:41:32.488Z,7.03
2017-11-17T07:44:34.473Z,7.63
2017-11-17T07:47:36.368Z,4.87
2017-11-17T07:50:38.317Z,3.83
2017-11-17T07:53:40.356Z,3.37
2017-11-17T07:56:42.286Z,3.37
2017-11-17T07:59:44.216Z,3.10
2017-11-17T08:02:46.998Z,2.72
2017-11-17T08:05:48.976Z,13.40
2017-11-17T08:08:50.941Z,9.40
2017-11-17T08:11:52.836Z,9.33
2017-11-17T08:14:54.816Z,4.60
2017-11-17T08:18:10.255Z,4.53
2017-11-17T08:21:12.169Z,4.03
2017-11-17T08:24:14.303Z,4.57
2017-11-17T08:27:17.076Z,3.13
2017-11-17T08:30:18.970Z,2.50
2017-11-17T08:33:22.504Z,1.90
2017-11-17T08:36:25.294Z,2.20
2017-11-17T08:39:27.313Z,2.10
2017-11-17T08:42:29.237Z,2.50
2017-11-17T08:45:31.216Z,2.08
2017-11-17T08:48:33.110Z,2.70
2017-11-17T08:51:35.813Z,2.78
2017-11-17T08:54:38.503Z,2.53
2017-11-17T08:57:40.505Z,2.10
2017-11-17T09:00:43.204Z,3.37
2017-11-17T09:03:45.168Z,2.60
2017-11-17T09:06:47.147Z,2.33
2017-11-17T09:09:49.141Z,2.55
2017-11-17T09:12:51.147Z,2.37
2017-11-17T09:15:53.918Z,2.30
2017-11-17T09:18:55.906Z,2.58
2017-11-17T09:21:58.010Z,2.83
2017-11-17T09:25:00.104Z,2.55
2017-11-17T09:28:02.891Z,1.90
2017-11-17T09:31:04.787Z,2.10
2017-11-17T09:34:08.791Z,2.35
2017-11-17T09:37:11.498Z,1.95
2017-11-17T09:40:13.508Z,1.98
2017-11-17T09:43:16.293Z,3.10
2017-11-17T09:46:18.278Z,2.87
2017-11-17T09:49:20.939Z,2.67
2017-11-17T09:52:22.933Z,2.83
2017-11-17T09:55:24.940Z,2.70
2017-11-17T09:58:27.663Z,2.30
2017-11-17T10:01:30.355Z,2.20
2017-11-17T10:04:33.146Z,2.45
2017-11-17T10:07:35.077Z,3.12
2017-11-17T10:10:37.932Z,2.35
2017-11-17T10:13:40.698Z,2.20
2017-11-17T10:16:42.652Z,2.53
2017-11-17T10:19:44.723Z,2.10
2017-11-17T10:22:46.680Z,2.42
2017-11-17T10:25:48.661Z,2.72
2017-11-17T10:28:50.579Z,2.00
2017-11-17T10:31:52.475Z,2.05
2017-11-17T10:34:54.493Z,2.20
2017-11-17T10:37:56.400Z,2.58
2017-11-17T10:40:59.122Z,2.28
2017-11-17T10:44:01.037Z,2.72
2017-11-17T10:47:02.990Z,2.45
2017-11-17T10:50:04.926Z,2.30
2017-11-17T10:53:07.617Z,2.55
2017-11-17T10:56:09.548Z,2.35
2017-11-17T10:59:11.593Z,2.72
2017-11-17T11:02:13.514Z,1.73
2017-11-17T11:05:15.464Z,2.03
2017-11-17T11:08:17.367Z,1.80
2017-11-17T11:11:20.935Z,2.30
2017-11-17T11:14:22.839Z,1.80
2017-11-17T11:17:25.142Z,2.10
2017-11-17T11:20:27.080Z,2.08
2017-11-17T11:23:29.113Z,2.10
2017-11-17T11:26:31.813Z,1.83
2017-11-17T11:29:34.621Z,1.75
2017-11-17T11:32:37.317Z,1.95
2017-11-17T11:35:40.324Z,2.12
2017-11-17T11:38:43.005Z,1.98
2017-11-17T11:41:45.002Z,1.62
2017-11-17T11:44:46.903Z,2.15
2017-11-17T11:47:49.683Z,1.23
2017-11-17T11:50:51.641Z,1.87
2017-11-17T11:53:53.934Z,1.55
2017-11-17T11:56:55.919Z,1.45
2017-11-17T11:59:57.894Z,1.45
2017-11-17T12:02:59.801Z,1.58
2017-11-17T12:06:01.837Z,1.58
2017-11-17T12:09:03.759Z,1.80
2017-11-17T12:12:06.064Z,1.65
2017-11-17T12:15:08.837Z,1.27
2017-11-17T12:18:11.023Z,1.95
2017-11-17T12:21:12.948Z,1.70
2017-11-17T12:24:15.945Z,1.87
2017-11-17T12:27:18.706Z,1.98
2017-11-17T12:30:20.878Z,1.40
2017-11-17T12:33:22.782Z,1.60
2017-11-17T12:36:24.771Z,1.90
2017-11-17T12:39:26.771Z,1.40
2017-11-17T12:42:29.549Z,1.50
2017-11-17T12:45:31.535Z,1.65
2017-11-17T12:48:33.546Z,1.73
2017-11-17T12:51:36.381Z,1.48
2017-11-17T12:54:38.611Z,1.42
2017-11-17T12:57:40.512Z,1.40
2017-11-17T13:00:42.475Z,1.30
2017-11-17T13:03:45.071Z,1.50
2017-11-17T13:06:47.051Z,1.70
2017-11-17T13:09:48.942Z,1.48
2017-11-17T13:12:50.882Z,1.20
2017-11-17T13:15:52.806Z,1.58
2017-11-17T13:18:54.805Z,1.58
2017-11-17T13:21:56.799Z,1.23
2017-11-17T13:24:59.482Z,1.50
2017-11-17T13:28:01.398Z,1.48
2017-11-17T13:31:03.456Z,1.30
2017-11-17T13:34:05.361Z,1.35
2017-11-17T13:37:08.441Z,1.25
2017-11-17T13:40:11.879Z,1.55
2017-11-17T13:43:14.666Z,1.77
2017-11-17T13:46:16.892Z,1.40
2017-11-17T13:49:18.908Z,1.50
2017-11-17T13:52:21.750Z,1.37
2017-11-17T13:55:23.732Z,1.30
2017-11-17T13:58:26.505Z,1.40
2017-11-17T14:01:28.513Z,1.35
2017-11-17T14:04:30.467Z,1.75
2017-11-17T14:07:32.449Z,1.23
2017-11-17T14:10:34.433Z,1.65
2017-11-17T14:13:36.411Z,1.35
2017-11-17T14:16:38.426Z,1.40
2017-11-17T14:19:40.376Z,1.87
2017-11-17T14:22:42.371Z,1.48
2017-11-17T14:25:44.290Z,1.77
2017-11-17T14:28:47.078Z,1.65
2017-11-17T14:31:49.056Z,1.55
2017-11-17T14:34:50.990Z,1.35
2017-11-17T14:37:52.935Z,1.23
2017-11-17T14:40:55.699Z,1.58
2017-11-17T14:43:57.626Z,2.33
2017-11-17T14:47:00.404Z,1.60
2017-11-17T14:50:02.392Z,1.53
2017-11-17T14:53:05.158Z,1.90
2017-11-17T14:56:07.356Z,2.17
2017-11-17T14:59:09.269Z,1.77
2017-11-17T15:02:11.977Z,1.97
2017-11-17T15:05:14.752Z,1.87
2017-11-17T15:08:17.567Z,1.60
2017-11-17T15:11:19.558Z,1.57
2017-11-17T15:14:22.346Z,1.97
2017-11-17T15:17:24.313Z,2.00
2017-11-17T15:20:26.240Z,2.63
2017-11-17T15:23:34.060Z,1.73
2017-11-17T15:26:36.302Z,2.37
2017-11-17T15:29:38.199Z,1.93
2017-11-17T15:32:40.117Z,2.63
2017-11-17T15:35:42.031Z,1.97
2017-11-17T15:38:43.964Z,2.00
2017-11-17T15:41:46.771Z,2.90
2017-11-17T15:44:49.738Z,2.80
2017-11-17T15:47:52.271Z,2.77
2017-11-17T15:50:54.955Z,2.63
2017-11-17T15:53:56.907Z,2.57
2017-11-17T15:56:59.409Z,2.50
2017-11-17T16:00:01.318Z,2.47
2017-11-17T16:03:03.238Z,2.67
2017-11-17T16:06:05.174Z,3.13
2017-11-17T16:09:07.091Z,2.23
2017-11-17T16:12:09.015Z,2.57
2017-11-17T16:15:11.010Z,2.20
2017-11-17T16:18:12.934Z,2.03
2017-11-17T16:21:15.624Z,2.47
2017-11-17T16:24:18.543Z,1.90
2017-11-17T16:27:20.483Z,2.50
2017-11-17T16:30:22.451Z,2.10
2017-11-17T16:33:24.395Z,3.27
2017-11-17T16:36:26.321Z,12.90
2017-11-17T16:39:28.331Z,13.47
2017-11-17T16:42:31.004Z,3.13
2017-11-17T16:45:32.918Z,2.50
2017-11-17T16:48:35.704Z,26.50
2017-11-17T16:51:37.632Z,58.37
2017-11-17T16:54:40.210Z,58.00
2017-11-17T16:57:42.178Z,64.37
2017-11-17T17:00:44.880Z,41.40
2017-11-17T17:03:47.588Z,56.20
2017-11-17T17:06:50.283Z,25.77
2017-11-17T17:09:52.981Z,12.87
2017-11-17T17:12:55.666Z,7.37
2017-11-17T17:15:57.649Z,8.03
2017-11-17T17:18:59.606Z,4.60
2017-11-17T17:22:01.966Z,5.20
2017-11-17T17:25:03.889Z,3.53
2017-11-17T17:28:05.844Z,4.03
2017-11-17T17:31:07.756Z,10.70
2017-11-17T17:34:09.849Z,10.63
2017-11-17T17:37:11.820Z,8.27
2017-11-17T17:40:13.763Z,12.00
2017-11-17T17:43:15.706Z,9.73
2017-11-17T17:46:18.703Z,10.97
2017-11-17T17:49:20.667Z,9.47
2017-11-17T17:52:22.654Z,7.67
2017-11-17T17:55:24.583Z,5.57
2017-11-17T17:58:26.535Z,5.50
2017-11-17T18:01:28.438Z,5.73
2017-11-17T18:04:31.152Z,4.63
2017-11-17T18:07:33.211Z,4.50
2017-11-17T18:10:35.935Z,4.30
2017-11-17T18:13:37.835Z,4.53
2017-11-17T18:16:39.868Z,4.57
2017-11-17T18:19:41.819Z,4.57
2017-11-17T18:22:43.908Z,19.20
2017-11-17T18:25:45.947Z,15.97
2017-11-17T18:28:48.045Z,5.90
2017-11-17T18:31:50.723Z,4.03
2017-11-17T18:34:52.673Z,8.20
2017-11-17T18:37:54.588Z,10.00
2017-11-17T18:40:57.331Z,9.43
2017-11-17T18:43:59.222Z,9.17
2017-11-17T18:47:01.256Z,9.73
2017-11-17T18:50:04.074Z,6.40
2017-11-17T18:53:07.079Z,7.40
2017-11-17T18:56:09.885Z,9.23
2017-11-17T18:59:12.613Z,6.17
2017-11-17T19:02:15.375Z,6.63
2017-11-17T19:05:18.205Z,13.77
2017-11-17T19:08:20.962Z,4.30
2017-11-17T19:11:22.910Z,10.67
2017-11-17T19:14:24.875Z,16.93
2017-11-17T19:17:27.644Z,9.23
2017-11-17T19:20:30.358Z,7.17
2017-11-17T19:23:32.420Z,6.97
2017-11-17T19:26:35.231Z,4.80
2017-11-17T19:29:37.185Z,3.97
2017-11-17T19:32:39.177Z,4.13
2017-11-17T19:35:41.264Z,4.37
2017-11-17T19:38:43.239Z,3.87
2017-11-17T19:41:45.180Z,3.67
2017-11-17T19:44:47.104Z,3.73
2017-11-17T19:47:49.019Z,3.90
2017-11-17T19:50:50.924Z,3.20
2017-11-17T19:53:53.698Z,2.60
2017-11-17T19:56:55.615Z,2.17
2017-11-17T19:59:57.583Z,2.50
2017-11-17T20:03:00.273Z,6.13
2017-11-17T20:06:03.075Z,21.10
2017-11-17T20:09:05.875Z,23.07
2017-11-17T20:12:08.558Z,50.43
2017-11-17T20:15:10.532Z,15.67
2017-11-17T20:18:12.490Z,32.93
2017-11-17T20:21:14.561Z,30.00
2017-11-17T20:24:16.624Z,60.23
2017-11-17T20:27:19.409Z,20.37
2017-11-17T20:30:21.335Z,17.23
2017-11-17T20:33:23.242Z,6.97
2017-11-17T20:36:25.223Z,6.43
2017-11-17T20:39:27.254Z,2.80
2017-11-17T20:42:30.039Z,4.20
2017-11-17T20:45:31.969Z,2.77
2017-11-17T20:48:34.011Z,3.87
2017-11-17T20:51:35.965Z,4.10
2017-11-17T20:54:37.903Z,2.60
2017-11-17T20:57:39.826Z,3.30
2017-11-17T21:00:41.774Z,2.53
2017-11-17T21:03:43.711Z,2.70
2017-11-17T21:06:45.654Z,2.73
2017-11-17T21:09:47.615Z,2.73
2017-11-17T21:12:49.563Z,2.70
2017-11-17T21:15:52.386Z,2.93
2017-11-17T21:18:55.268Z,2.70
2017-11-17T21:21:57.163Z,2.57
2017-11-17T21:24:59.858Z,2.40
2017-11-17T21:28:01.780Z,2.37
2017-11-17T21:31:03.721Z,2.80
2017-11-17T21:34:05.665Z,2.93
2017-11-17T21:37:07.602Z,2.57
2017-11-17T21:40:11.112Z,2.77
2017-11-17T21:43:13.057Z,2.50
2017-11-17T21:46:15.091Z,2.47
2017-11-17T21:49:17.876Z,2.33
2017-11-17T21:52:19.791Z,2.13
2017-11-17T21:55:22.038Z,3.10
2017-11-17T21:58:23.963Z,2.70
2017-11-17T22:01:26.218Z,2.60
2017-11-17T22:04:29.036Z,3.17
2017-11-17T22:07:31.792Z,3.00
2017-11-17T22:10:33.714Z,2.50
2017-11-17T22:13:36.479Z,2.27
2017-11-17T22:16:38.498Z,3.03
2017-11-17T22:19:41.195Z,2.03
2017-11-17T22:22:43.989Z,2.73
2017-11-17T22:25:45.941Z,2.23
2017-11-17T22:28:47.963Z,2.10
2017-11-17T22:31:50.683Z,2.67
2017-11-17T22:34:52.638Z,2.47
2017-11-17T22:37:56.188Z,3.20
2017-11-17T22:40:58.106Z,2.70
2017-11-17T22:44:00.341Z,2.50
2017-11-17T22:47:03.697Z,3.30
2017-11-17T22:50:05.812Z,2.87
2017-11-17T22:53:07.730Z,2.70
2017-11-17T22:56:10.516Z,3.23
2017-11-17T22:59:12.414Z,2.33
2017-11-17T23:02:15.200Z,3.10
2017-11-17T23:05:17.870Z,3.00
2017-11-17T23:08:19.875Z,2.67
2017-11-17T23:11:23.308Z,2.60
2017-11-17T23:14:26.079Z,2.90
2017-11-17T23:17:28.095Z,3.00
2017-11-17T23:20:30.855Z,3.10
2017-11-17T23:23:32.782Z,2.87
2017-11-17T23:26:35.576Z,2.83
2017-11-17T23:29:38.246Z,3.30
2017-11-17T23:32:40.459Z,3.00
2017-11-17T23:35:42.407Z,3.63
2017-11-17T23:38:44.405Z,2.50
2017-11-17T23:41:46.382Z,2.80
2017-11-17T23:44:48.295Z,3.90
2017-11-17T23:47:50.977Z,3.30
2017-11-17T23:50:53.686Z,3.17
2017-11-17T23:53:56.361Z,2.93
2017-11-17T23:56:58.373Z,2.87
